Blue Yonder — WCW3625 — position and weather

sailwx.info

Track history (hours):
 
Tides and Currents Weather Stations Pressure Air Temp Water Temp Dewpoint Dewpoint Depression Visibility Wind Speed Wind Dir Waves Ship Positions

Blue Yonder

Owner: BRIDGES, DAVID M, VIRGINIA BEACH, VA. More information available from US FCC via Universal Licensing System and Coast Guard Vessel Documentation Center.

Last reported at 2017-Feb-15 03:33 UTC. Time now 2017-Mar-29 21:17 UTC.
Position N 26°01' W 079°52'.
Warning: this ship's position is 42 days out of date.

Length 12 m.

Type: Sailing vessel. MMSI: 367091720.

Date/timePositionNaut miles runAvg speedWind from/ knotsBaromVisibWave heightAir tempDewpointWater temp
2017-Feb-15 03:33N 26°01' W 079°52'3 3.0
2017-Feb-15 02:33N 26°03' W 079°55'3 2.7
2017-Feb-15 01:33N 26°04' W 079°57'3 2.5
2017-Feb-15 00:33N 26°05' W 080°00'4 3.5
2017-Feb-14 23:33N 26°05' W 080°04'3 2.4
2017-Feb-14 22:22N 26°06' W 080°07'0 0.0
2017-Feb-14 21:25N 26°06' W 080°07'0 0.0
2017-Feb-14 20:25N 26°06' W 080°07'0 0.3
2017-Feb-14 19:27N 26°06' W 080°07'  
2017-Feb-08 16:25N 26°07' W 080°08'0 0.2
2017-Feb-08 15:26N 26°06' W 080°07'  
Track history (hours):
 
Tides and Currents Weather Stations Pressure Air Temp Water Temp Dewpoint Dewpoint Depression Visibility Wind Speed Wind Dir Waves Ship Positions

Blue Yonder

Owner: BRIDGES, DAVID M, VIRGINIA BEACH, VA. More information available from US FCC via Universal Licensing System and Coast Guard Vessel Documentation Center.

Last reported at 2017-Feb-15 03:33 UTC. Time now 2017-Mar-29 21:17 UTC.
Position N 26°01' W 079°52'.
Warning: this ship's position is 42 days out of date.

Length 12 m.

Type: Sailing vessel. MMSI: 367091720.

Date/timePositionNaut miles runAvg speedWind from/ knotsBaromVisibWave heightAir tempDewpointWater temp
2017-Feb-15 03:33N 26°01' W 079°52'3 3.0
2017-Feb-15 02:33N 26°03' W 079°55'3 2.7
2017-Feb-15 01:33N 26°04' W 079°57'3 2.5
2017-Feb-15 00:33N 26°05' W 080°00'4 3.5
2017-Feb-14 23:33N 26°05' W 080°04'3 2.4
2017-Feb-14 22:22N 26°06' W 080°07'0 0.0
2017-Feb-14 21:25N 26°06' W 080°07'0 0.0
2017-Feb-14 20:25N 26°06' W 080°07'0 0.3
2017-Feb-14 19:27N 26°06' W 080°07'  
2017-Feb-08 16:25N 26°07' W 080°08'0 0.2
2017-Feb-08 15:26N 26°06' W 080°07'  

Dump ship's entire track history